Alpine Meadows, California
Current Conditions -  °F | °C
As of 8:35 PM on Saturday 25 Oct 2014 (Local Time) from KTRK Reporting Station
Scattered Clouds Scattered Clouds  
Wind Chill:   Ceiling: Unl
Heat Index:   Visibility: 10mi
Dew Point: -1°   Wind: 8mph
Humidity: 75%   Direction: 140°SE
Pressure: 30.11"   Gusts: NA
Location:  39.16°N, 120.24°W
Report Text: KTRK 260335Z AUTO 14007KT 10SM SCT036 SCT060 03/M01 A3011 RMK AO2
Loading
Personal Weather Stations






























Interactive Weather Map
Tropical Storm Tracking
New forecast layout! Learn more

10-Day Weather Forecast

Advertisements
Track Severe Weather on mobile